createdAt,value
2023-05-24T00:00:57.158Z,0
2023-05-24T00:03:57.835Z,0.3333333333333333
2023-05-24T00:06:57.382Z,0.3333333333333333
2023-05-24T00:09:57.397Z,0
2023-05-24T00:12:57.867Z,0.6666666666666666
2023-05-24T00:15:58.129Z,0
2023-05-24T00:18:57.667Z,0.3333333333333333
2023-05-24T00:21:57.500Z,0.6666666666666666
2023-05-24T00:24:57.559Z,0.3333333333333333
2023-05-24T00:27:57.497Z,1
2023-05-24T00:30:57.886Z,0.3333333333333333
2023-05-24T00:33:57.474Z,0
2023-05-24T00:36:56.932Z,0
2023-05-24T00:39:58.223Z,3
2023-05-24T00:42:57.138Z,0
2023-05-24T00:45:57.821Z,0
2023-05-24T00:48:57.046Z,0
2023-05-24T00:51:56.930Z,1.3333333333333333
2023-05-24T00:54:57.460Z,0.3333333333333333
2023-05-24T00:57:57.097Z,0
2023-05-24T01:00:57.246Z,0
2023-05-24T01:03:57.645Z,0.3333333333333333
2023-05-24T01:06:57.235Z,0
2023-05-24T01:09:57.163Z,0
2023-05-24T01:12:57.333Z,0
2023-05-24T01:15:57.147Z,0
2023-05-24T01:18:57.176Z,0.3333333333333333
2023-05-24T01:21:56.858Z,1.6666666666666667
2023-05-24T01:24:57.022Z,0
2023-05-24T01:27:56.980Z,3.3333333333333335
2023-05-24T01:30:57.328Z,0
2023-05-24T01:33:56.916Z,2.3333333333333335
2023-05-24T01:36:57.129Z,1.6666666666666667
2023-05-24T01:39:57.160Z,0
2023-05-24T01:42:56.785Z,0
2023-05-24T01:45:57.530Z,0.3333333333333333
2023-05-24T01:48:56.593Z,0.3333333333333333
2023-05-24T01:51:57.666Z,0
2023-05-24T01:54:57.463Z,0
2023-05-24T01:57:57.023Z,0.6666666666666666
2023-05-24T02:00:57.516Z,0
2023-05-24T02:03:57.387Z,1.3333333333333333
2023-05-24T02:06:57.216Z,0
2023-05-24T02:09:56.795Z,0
2023-05-24T02:12:57.016Z,1
2023-05-24T02:15:57.389Z,0.3333333333333333
2023-05-24T02:18:58.069Z,0
2023-05-24T02:21:57.605Z,1.3333333333333333
2023-05-24T02:24:57.614Z,0.3333333333333333
2023-05-24T02:27:57.304Z,1.6666666666666667
2023-05-24T02:30:57.091Z,0
2023-05-24T02:33:56.888Z,1.6666666666666667
2023-05-24T02:36:57.161Z,0
2023-05-24T02:39:56.917Z,0
2023-05-24T02:42:57.679Z,1.3333333333333333
2023-05-24T02:45:57.730Z,0
2023-05-24T02:48:56.868Z,0
2023-05-24T02:51:57.739Z,0.3333333333333333
2023-05-24T02:54:56.786Z,0
2023-05-24T02:57:56.911Z,0.3333333333333333
2023-05-24T03:00:57.430Z,0.3333333333333333
2023-05-24T03:03:56.755Z,0.6666666666666666
2023-05-24T03:06:57.306Z,0.6666666666666666
2023-05-24T03:09:57.541Z,1
2023-05-24T03:12:56.848Z,1
2023-05-24T03:15:57.510Z,4.333333333333333
2023-05-24T03:18:57.489Z,5.333333333333333
2023-05-24T03:21:57.284Z,4.333333333333333
2023-05-24T03:24:57.075Z,7
2023-05-24T03:27:57.320Z,6.666666666666667
2023-05-24T03:30:58.034Z,9
2023-05-24T03:33:57.302Z,11.333333333333334
2023-05-24T03:36:57.146Z,13.666666666666666
2023-05-24T03:39:56.819Z,17
2023-05-24T03:42:57.215Z,22.333333333333332
2023-05-24T03:45:57.311Z,26
2023-05-24T03:48:57.339Z,30.333333333333332
2023-05-24T03:51:57.533Z,32
2023-05-24T03:54:57.192Z,35
2023-05-24T03:57:57.667Z,36.666666666666664
2023-05-24T04:00:57.084Z,40
2023-05-24T04:03:56.843Z,46.333333333333336
2023-05-24T04:06:57.106Z,53.333333333333336
2023-05-24T04:09:57.678Z,57.333333333333336
2023-05-24T04:12:56.818Z,61.666666666666664
2023-05-24T04:15:57.341Z,70.33333333333333
2023-05-24T04:18:57.869Z,78.33333333333333
2023-05-24T04:21:56.943Z,84.66666666666667
2023-05-24T04:24:57.204Z,96
2023-05-24T04:27:57.226Z,105.66666666666667
2023-05-24T04:30:57.531Z,110
2023-05-24T04:33:57.449Z,107.33333333333333
2023-05-24T04:36:57.247Z,111.33333333333333
2023-05-24T04:39:57.977Z,122.33333333333333
2023-05-24T04:42:57.390Z,130.66666666666666
2023-05-24T04:45:57.283Z,132
2023-05-24T04:48:57.256Z,131
2023-05-24T04:51:57.185Z,131.66666666666666
2023-05-24T04:54:57.498Z,141.33333333333334
2023-05-24T04:57:57.187Z,154.66666666666666
2023-05-24T05:00:57.782Z,169
2023-05-24T05:03:57.289Z,180.66666666666666
2023-05-24T05:06:56.932Z,188.66666666666666
2023-05-24T05:09:58.074Z,204
2023-05-24T05:12:57.745Z,217
2023-05-24T05:15:58.025Z,227.66666666666666
2023-05-24T05:18:57.821Z,247.66666666666666
2023-05-24T05:21:57.634Z,266
2023-05-24T05:24:56.971Z,281.3333333333333
2023-05-24T05:27:57.227Z,285.3333333333333
2023-05-24T05:30:57.677Z,299.3333333333333
2023-05-24T05:33:57.347Z,329.3333333333333
2023-05-24T05:36:57.356Z,362.6666666666667
2023-05-24T05:39:57.680Z,390.6666666666667
2023-05-24T05:42:57.516Z,405.6666666666667
2023-05-24T05:45:57.648Z,403
2023-05-24T05:48:57.349Z,394
2023-05-24T05:51:57.574Z,392.6666666666667
2023-05-24T05:54:57.190Z,401.6666666666667
2023-05-24T05:57:58.075Z,406.3333333333333
2023-05-24T06:00:58.044Z,413.3333333333333
2023-05-24T06:03:57.234Z,426.6666666666667
2023-05-24T06:06:57.253Z,445.6666666666667
2023-05-24T06:09:58.224Z,457.3333333333333
2023-05-24T06:12:57.562Z,457.6666666666667
2023-05-24T06:15:58.050Z,461.3333333333333
2023-05-24T06:19:05.983Z,491.3333333333333
2023-05-24T06:21:57.259Z,524.3333333333334
2023-05-24T06:24:57.688Z,553
2023-05-24T06:27:58.149Z,566.3333333333334
2023-05-24T06:30:57.122Z,555
2023-05-24T06:36:56.923Z,601
2023-05-24T06:39:57.558Z,630.3333333333334
2023-05-24T06:42:57.778Z,634.6666666666666
2023-05-24T06:45:57.445Z,619.6666666666666
2023-05-24T06:48:57.555Z,619.3333333333334
2023-05-24T06:51:57.672Z,639
2023-05-24T06:54:57.683Z,620.3333333333334
2023-05-24T06:57:57.363Z,649.3333333333334
2023-05-24T07:00:57.446Z,708
2023-05-24T07:03:57.489Z,759.3333333333334
2023-05-24T07:06:57.727Z,817.6666666666666
2023-05-24T07:09:57.622Z,848.3333333333334
2023-05-24T07:12:57.346Z,850
2023-05-24T07:15:57.176Z,809
2023-05-24T07:18:57.376Z,723
2023-05-24T07:21:57.354Z,654
2023-05-24T07:24:57.765Z,726
2023-05-24T07:27:57.915Z,807.6666666666666
2023-05-24T07:30:56.993Z,823.6666666666666
2023-05-24T07:33:57.814Z,789.6666666666666
2023-05-24T07:36:56.891Z,805.6666666666666
2023-05-24T07:39:57.178Z,837.6666666666666
2023-05-24T07:42:57.316Z,800.6666666666666
2023-05-24T07:45:58.279Z,788
2023-05-24T07:48:56.732Z,831.6666666666666
2023-05-24T07:51:57.707Z,834.3333333333334
2023-05-24T07:54:57.823Z,845.3333333333334
2023-05-24T07:57:56.870Z,854.6666666666666
2023-05-24T08:00:57.586Z,856.6666666666666
2023-05-24T08:03:57.921Z,840.3333333333334
2023-05-24T08:06:57.151Z,868
2023-05-24T08:09:58.222Z,928.6666666666666
2023-05-24T08:12:57.027Z,924.6666666666666
2023-05-24T08:15:57.379Z,930
2023-05-24T08:18:57.443Z,932.3333333333334
2023-05-24T08:21:57.059Z,918
2023-05-24T08:24:57.224Z,906.3333333333334
2023-05-24T08:27:57.179Z,859.6666666666666
2023-05-24T08:30:57.414Z,925.6666666666666
2023-05-24T08:33:57.108Z,935.6666666666666
2023-05-24T08:36:56.976Z,912.6666666666666
2023-05-24T08:39:57.965Z,888
2023-05-24T08:42:57.787Z,879.3333333333334
2023-05-24T08:45:57.369Z,828
2023-05-24T08:48:56.959Z,768.3333333333334
2023-05-24T08:51:57.866Z,768.3333333333334
2023-05-24T08:54:57.789Z,818
2023-05-24T08:57:57.715Z,892.6666666666666
2023-05-24T09:00:58.425Z,840
2023-05-24T09:03:57.245Z,787.3333333333334
2023-05-24T09:06:57.920Z,864.3333333333334
2023-05-24T09:09:58.398Z,935
2023-05-24T09:12:57.383Z,939
2023-05-24T09:15:57.599Z,932
2023-05-24T09:18:57.513Z,879.6666666666666
2023-05-24T09:21:57.621Z,790.3333333333334
2023-05-24T09:24:56.953Z,722.3333333333334
2023-05-24T09:27:57.144Z,722
2023-05-24T09:30:57.724Z,725.3333333333334
2023-05-24T09:33:57.322Z,698
2023-05-24T09:36:56.864Z,656.3333333333334
2023-05-24T09:39:57.712Z,669.6666666666666
2023-05-24T09:42:57.177Z,696.6666666666666
2023-05-24T09:45:57.127Z,748
2023-05-24T09:48:57.895Z,773.6666666666666
2023-05-24T09:51:57.989Z,756
2023-05-24T09:54:57.161Z,768
2023-05-24T09:57:57.090Z,762.6666666666666
2023-05-24T10:00:57.737Z,785.6666666666666
2023-05-24T10:03:57.062Z,784
2023-05-24T10:06:56.694Z,794
2023-05-24T10:09:57.799Z,795.6666666666666
2023-05-24T10:12:57.789Z,770.6666666666666
2023-05-24T10:15:57.786Z,814.3333333333334
2023-05-24T10:18:57.513Z,841.6666666666666
2023-05-24T10:21:57.332Z,837.6666666666666
2023-05-24T10:24:57.571Z,878.3333333333334
2023-05-24T10:27:57.179Z,918
2023-05-24T10:30:57.421Z,920.3333333333334
2023-05-24T10:34:06.663Z,917.3333333333334
2023-05-24T10:36:57.410Z,877
2023-05-24T10:39:56.734Z,792
2023-05-24T10:42:56.754Z,754.3333333333334
2023-05-24T10:45:56.984Z,721
2023-05-24T10:48:57.037Z,711
2023-05-24T10:51:57.597Z,762.6666666666666
2023-05-24T10:55:03.448Z,818.3333333333334
2023-05-24T10:57:57.301Z,795
2023-05-24T11:00:57.555Z,743.6666666666666
2023-05-24T11:04:16.661Z,708.3333333333334
2023-05-24T11:06:57.222Z,674.6666666666666
2023-05-24T11:09:56.969Z,651.6666666666666
2023-05-24T11:12:56.872Z,624
2023-05-24T11:15:57.824Z,572
2023-05-24T11:18:57.354Z,507
2023-05-24T11:21:57.090Z,456
2023-05-24T11:24:57.832Z,434.6666666666667
2023-05-24T11:27:57.581Z,461
2023-05-24T11:30:57.716Z,521.6666666666666
2023-05-24T11:33:57.485Z,593
2023-05-24T11:36:57.779Z,646.3333333333334
2023-05-24T11:39:58.297Z,699
2023-05-24T11:42:56.886Z,704.6666666666666
2023-05-24T11:45:57.317Z,742
2023-05-24T11:48:56.963Z,734
2023-05-24T11:51:58.101Z,737.3333333333334
2023-05-24T11:54:57.170Z,759.3333333333334
2023-05-24T11:57:58.616Z,749
2023-05-24T12:00:58.169Z,727
2023-05-24T12:03:57.259Z,681.3333333333334
2023-05-24T12:06:57.347Z,705.6666666666666
2023-05-24T12:09:57.028Z,743
2023-05-24T12:12:56.714Z,803.3333333333334
2023-05-24T12:15:57.655Z,853.6666666666666
2023-05-24T12:19:05.083Z,843.3333333333334
2023-05-24T12:21:57.748Z,845
2023-05-24T12:24:57.156Z,841
2023-05-24T12:27:57.147Z,821
2023-05-24T12:30:58.016Z,824.6666666666666
2023-05-24T12:33:57.083Z,805.3333333333334
2023-05-24T12:36:57.025Z,830
2023-05-24T12:39:57.947Z,817
2023-05-24T12:42:57.549Z,753.3333333333334
2023-05-24T12:45:57.096Z,727
2023-05-24T12:48:57.424Z,749
2023-05-24T12:51:57.423Z,689.6666666666666
2023-05-24T12:54:57.826Z,653.6666666666666
2023-05-24T12:57:56.980Z,603
2023-05-24T13:00:57.561Z,495
2023-05-24T13:03:57.757Z,572.3333333333334
2023-05-24T13:06:57.256Z,566.3333333333334
2023-05-24T13:09:57.426Z,560.6666666666666
2023-05-24T13:12:57.092Z,567.6666666666666
2023-05-24T13:15:57.561Z,556.3333333333334
2023-05-24T13:18:57.204Z,577.3333333333334
2023-05-24T13:21:57.722Z,611
2023-05-24T13:24:56.997Z,640.6666666666666
2023-05-24T13:27:57.369Z,635
2023-05-24T13:30:57.974Z,650.6666666666666
2023-05-24T13:33:57.533Z,669
2023-05-24T13:36:57.811Z,664.6666666666666
2023-05-24T13:39:57.801Z,652.6666666666666
2023-05-24T13:42:57.547Z,683.3333333333334
2023-05-24T13:45:57.154Z,696.3333333333334
2023-05-24T13:48:56.942Z,690.3333333333334
2023-05-24T13:51:58.508Z,696
2023-05-24T13:54:57.605Z,708
2023-05-24T13:57:56.684Z,704.3333333333334
2023-05-24T14:00:57.235Z,689.6666666666666
2023-05-24T14:03:57.314Z,752.3333333333334
2023-05-24T14:06:57.112Z,747
2023-05-24T14:09:57.497Z,730
2023-05-24T14:13:15.058Z,680.6666666666666
2023-05-24T14:15:58.317Z,674.3333333333334
2023-05-24T14:18:57.223Z,676.3333333333334
2023-05-24T14:21:57.396Z,705
2023-05-24T14:24:57.841Z,708
2023-05-24T14:27:57.100Z,755.3333333333334
2023-05-24T14:30:57.058Z,802
2023-05-24T14:33:57.139Z,770.3333333333334
2023-05-24T14:36:57.743Z,748.6666666666666
2023-05-24T14:39:57.187Z,636.3333333333334
2023-05-24T14:42:57.442Z,551.6666666666666
2023-05-24T14:45:57.395Z,469
2023-05-24T14:48:57.342Z,388
2023-05-24T14:51:57.805Z,404.6666666666667
2023-05-24T14:54:57.776Z,407
2023-05-24T14:57:57.194Z,359.3333333333333
2023-05-24T15:00:57.686Z,356.3333333333333
2023-05-24T15:03:57.206Z,435.6666666666667
2023-05-24T15:06:57.872Z,434
2023-05-24T15:09:57.752Z,437.3333333333333
2023-05-24T15:12:57.029Z,442.3333333333333
2023-05-24T15:15:57.451Z,448
2023-05-24T15:18:57.728Z,448.6666666666667
2023-05-24T15:21:56.758Z,440.6666666666667
2023-05-24T15:24:56.673Z,482.3333333333333
2023-05-24T15:27:57.499Z,519.6666666666666
2023-05-24T15:30:57.160Z,564.6666666666666
2023-05-24T15:33:56.913Z,600.3333333333334
2023-05-24T15:36:57.267Z,636.6666666666666
2023-05-24T15:39:57.998Z,642.6666666666666
2023-05-24T15:42:58.017Z,589.3333333333334
2023-05-24T15:45:57.529Z,596
2023-05-24T15:48:57.311Z,561.6666666666666
2023-05-24T15:52:04.196Z,532.3333333333334
2023-05-24T15:54:58.106Z,546.6666666666666
2023-05-24T15:57:57.711Z,486
2023-05-24T16:00:58.209Z,568.3333333333334
2023-05-24T16:03:57.926Z,592
2023-05-24T16:06:57.327Z,566.6666666666666
2023-05-24T16:09:57.590Z,573
2023-05-24T16:12:57.512Z,610.3333333333334
2023-05-24T16:15:58.364Z,511
2023-05-24T16:18:57.611Z,491.6666666666667
2023-05-24T16:21:58.212Z,475.6666666666667
2023-05-24T16:24:58.113Z,449.3333333333333
2023-05-24T16:27:57.455Z,466.6666666666667
2023-05-24T16:30:57.663Z,462.6666666666667
2023-05-24T16:33:57.954Z,479
2023-05-24T16:36:57.615Z,528.6666666666666
2023-05-24T16:39:58.001Z,447.6666666666667
2023-05-24T16:42:58.127Z,504.3333333333333
2023-05-24T16:45:57.562Z,448.6666666666667
2023-05-24T16:48:58.022Z,502.6666666666667
2023-05-24T16:51:58.046Z,517
2023-05-24T16:54:58.171Z,538.3333333333334
2023-05-24T16:57:56.990Z,518
2023-05-24T17:00:58.353Z,491
2023-05-24T17:03:57.899Z,486.6666666666667
2023-05-24T17:06:57.457Z,473
2023-05-24T17:09:57.679Z,461
2023-05-24T17:12:57.409Z,448.6666666666667
2023-05-24T17:15:57.297Z,424
2023-05-24T17:18:57.126Z,425.6666666666667
2023-05-24T17:21:57.742Z,381
2023-05-24T17:24:57.723Z,361.6666666666667
2023-05-24T17:27:57.605Z,359
2023-05-24T17:30:58.347Z,370.6666666666667
2023-05-24T17:33:57.934Z,380
2023-05-24T17:36:57.215Z,381.6666666666667
2023-05-24T17:39:57.884Z,362
2023-05-24T17:42:57.339Z,330.3333333333333
2023-05-24T17:45:57.534Z,322.6666666666667
2023-05-24T17:48:58.241Z,329.3333333333333
2023-05-24T17:52:00.288Z,344
2023-05-24T17:54:57.196Z,342.6666666666667
2023-05-24T17:57:57.346Z,327
2023-05-24T18:00:58.157Z,302
2023-05-24T18:03:57.279Z,286
2023-05-24T18:06:57.644Z,269.3333333333333
2023-05-24T18:10:00.048Z,257.3333333333333
2023-05-24T18:12:57.047Z,239.66666666666666
2023-05-24T18:15:57.522Z,227.33333333333334
2023-05-24T18:18:56.903Z,221.33333333333334
2023-05-24T18:21:57.184Z,214
2023-05-24T18:24:57.842Z,212
2023-05-24T18:27:57.838Z,190.66666666666666
2023-05-24T18:30:57.915Z,167.33333333333334
2023-05-24T18:33:57.352Z,142
2023-05-24T18:36:57.523Z,122.66666666666667
2023-05-24T18:39:57.948Z,108.66666666666667
2023-05-24T18:42:57.097Z,97
2023-05-24T18:45:57.232Z,87.66666666666667
2023-05-24T18:48:56.835Z,79
2023-05-24T18:51:57.641Z,71.66666666666667
2023-05-24T18:54:57.402Z,62.333333333333336
2023-05-24T18:57:57.516Z,50.666666666666664
2023-05-24T19:01:26.336Z,41.333333333333336
2023-05-24T19:03:57.900Z,33
2023-05-24T19:06:57.740Z,27.333333333333332
2023-05-24T19:09:57.410Z,19.666666666666668
2023-05-24T19:12:58.174Z,14
2023-05-24T19:15:57.796Z,11
2023-05-24T19:18:57.561Z,10
2023-05-24T19:21:57.209Z,5.333333333333333
2023-05-24T19:24:57.278Z,4.333333333333333
2023-05-24T19:28:00.530Z,3.6666666666666665
2023-05-24T19:30:57.134Z,0.6666666666666666
2023-05-24T19:34:01.020Z,1.6666666666666667
2023-05-24T19:36:57.703Z,1.6666666666666667
2023-05-24T19:39:57.207Z,1.3333333333333333
2023-05-24T19:42:57.024Z,0.6666666666666666
2023-05-24T19:45:57.052Z,0.6666666666666666
2023-05-24T19:48:58.322Z,0
2023-05-24T19:51:56.952Z,0.3333333333333333
2023-05-24T19:54:57.317Z,4
2023-05-24T19:57:57.923Z,1.3333333333333333
2023-05-24T20:00:58.231Z,0
2023-05-24T20:03:57.615Z,0
2023-05-24T20:06:57.647Z,0
2023-05-24T20:09:57.907Z,0
2023-05-24T20:12:57.637Z,0
2023-05-24T20:15:57.751Z,1.3333333333333333
2023-05-24T20:18:57.341Z,0
2023-05-24T20:21:57.471Z,0
2023-05-24T20:24:57.520Z,0
2023-05-24T20:27:57.536Z,0
2023-05-24T20:30:57.961Z,0
2023-05-24T20:33:57.132Z,0
2023-05-24T20:36:57.407Z,0.6666666666666666
2023-05-24T20:39:57.346Z,0
2023-05-24T20:42:56.989Z,0
2023-05-24T20:45:58.044Z,2.3333333333333335
2023-05-24T20:48:56.892Z,0
2023-05-24T20:51:57.883Z,0
2023-05-24T20:54:56.955Z,0
2023-05-24T20:57:57.256Z,0
2023-05-24T21:00:57.637Z,0.3333333333333333
2023-05-24T21:03:57.244Z,2.3333333333333335
2023-05-24T21:06:57.373Z,1.3333333333333333
2023-05-24T21:09:57.802Z,1.3333333333333333
2023-05-24T21:12:57.640Z,0
2023-05-24T21:15:57.305Z,0
2023-05-24T21:18:57.815Z,2
2023-05-24T21:21:57.469Z,0
2023-05-24T21:24:57.066Z,0
2023-05-24T21:27:57.231Z,0
2023-05-24T21:30:57.357Z,1
2023-05-24T21:33:56.834Z,0
2023-05-24T21:36:58.048Z,0
2023-05-24T21:39:57.981Z,1
2023-05-24T21:42:57.116Z,0
2023-05-24T21:45:58.096Z,0.3333333333333333
2023-05-24T21:48:58.290Z,1.3333333333333333
2023-05-24T21:51:57.930Z,0
2023-05-24T21:54:56.980Z,0
2023-05-24T21:57:56.653Z,0.3333333333333333
2023-05-24T22:00:57.869Z,0
2023-05-24T22:03:57.459Z,0
2023-05-24T22:06:57.005Z,0
2023-05-24T22:09:57.191Z,0.6666666666666666
2023-05-24T22:12:56.710Z,0
2023-05-24T22:15:57.729Z,0
2023-05-24T22:18:57.790Z,0
2023-05-24T22:21:56.580Z,0
2023-05-24T22:24:56.730Z,0
2023-05-24T22:27:57.263Z,1.6666666666666667
2023-05-24T22:30:57.445Z,0
2023-05-24T22:33:57.379Z,0.3333333333333333
2023-05-24T22:36:57.769Z,0.6666666666666666
2023-05-24T22:39:57.692Z,0
2023-05-24T22:42:57.390Z,1.6666666666666667
2023-05-24T22:45:57.445Z,0
2023-05-24T22:48:57.021Z,0
2023-05-24T22:51:57.294Z,0
2023-05-24T22:54:57.815Z,0
2023-05-24T22:57:56.996Z,0
2023-05-24T23:00:58.098Z,0
2023-05-24T23:04:07.733Z,0
2023-05-24T23:06:57.812Z,0.3333333333333333
2023-05-24T23:09:57.173Z,0.3333333333333333
2023-05-24T23:12:56.920Z,0
2023-05-24T23:15:57.176Z,0
2023-05-24T23:18:57.797Z,0
2023-05-24T23:21:57.159Z,0
2023-05-24T23:24:57.338Z,0
2023-05-24T23:27:57.436Z,1.3333333333333333
2023-05-24T23:30:57.599Z,0
2023-05-24T23:33:57.774Z,0.6666666666666666
2023-05-24T23:36:57.268Z,0
2023-05-24T23:39:57.373Z,0
2023-05-24T23:42:57.629Z,0
2023-05-24T23:45:57.440Z,0
2023-05-24T23:49:02.030Z,0.3333333333333333
2023-05-24T23:51:57.434Z,0
2023-05-24T23:54:56.783Z,0
2023-05-24T23:57:57.272Z,1.3333333333333333
